createdAt,value
2022-09-03T00:00:03.541Z,19.20
2022-09-03T00:02:45.691Z,19.20
2022-09-03T00:05:24.034Z,19.20
2022-09-03T00:08:02.581Z,19.20
2022-09-03T00:10:39.674Z,19.20
2022-09-03T00:13:11.437Z,19.20
2022-09-03T00:15:41.825Z,19.20
2022-09-03T00:18:16.003Z,19.20
2022-09-03T00:20:52.428Z,19.20
2022-09-03T00:23:26.346Z,19.20
2022-09-03T00:26:02.029Z,19.20
2022-09-03T00:28:39.528Z,19.20
2022-09-03T00:31:18.545Z,19.20
2022-09-03T00:33:49.642Z,19.30
2022-09-03T00:36:25.163Z,19.30
2022-09-03T00:38:54.228Z,19.30
2022-09-03T00:41:34.696Z,19.30
2022-09-03T00:44:36.148Z,19.20
2022-09-03T00:47:12.575Z,19.20
2022-09-03T00:49:59.512Z,19.20
2022-09-03T00:52:46.319Z,19.10
2022-09-03T00:55:31.018Z,19.10
2022-09-03T00:58:23.204Z,19.20
2022-09-03T01:00:53.956Z,19.20
2022-09-03T01:03:34.724Z,19.20
2022-09-03T01:06:20.205Z,19.30
2022-09-03T01:09:12.062Z,19.30
2022-09-03T01:11:57.037Z,19.30
2022-09-03T01:14:40.591Z,19.30
2022-09-03T01:17:22.594Z,19.40
2022-09-03T01:20:18.370Z,19.40
2022-09-03T01:23:30.322Z,19.30
2022-09-03T01:26:15.181Z,19.30
2022-09-03T01:28:58.386Z,19.30
2022-09-03T01:31:38.299Z,19.30
2022-09-03T01:34:22.226Z,19.30
2022-09-03T01:37:04.017Z,19.40
2022-09-03T01:39:42.279Z,19.40
2022-09-03T01:42:24.465Z,19.40
2022-09-03T01:45:29.149Z,19.40
2022-09-03T01:48:23.844Z,19.40
2022-09-03T01:51:00.128Z,19.40
2022-09-03T01:53:52.773Z,19.40
2022-09-03T01:56:39.336Z,19.40
2022-09-03T01:59:21.228Z,19.40
2022-09-03T02:01:58.817Z,19.40
2022-09-03T02:04:29.126Z,19.40
2022-09-03T02:07:01.507Z,19.40
2022-09-03T02:09:32.800Z,19.40
2022-09-03T02:12:10.982Z,19.40
2022-09-03T02:14:40.163Z,19.40
2022-09-03T02:17:11.686Z,19.40
2022-09-03T02:19:41.513Z,19.40
2022-09-03T02:22:10.806Z,19.40
2022-09-03T02:24:40.048Z,19.50
2022-09-03T02:27:09.246Z,19.60
2022-09-03T02:29:38.393Z,19.50
2022-09-03T02:32:07.573Z,19.60
2022-09-03T02:34:39.113Z,19.60
2022-09-03T02:37:15.373Z,19.60
2022-09-03T02:39:44.417Z,19.60
2022-09-03T02:42:15.850Z,19.60
2022-09-03T02:44:50.185Z,19.50
2022-09-03T02:47:20.708Z,19.40
2022-09-03T02:49:51.208Z,19.50
2022-09-03T02:52:20.273Z,19.40
2022-09-03T02:54:49.483Z,19.40
2022-09-03T02:57:23.837Z,19.40
2022-09-03T02:59:57.025Z,19.40
2022-09-03T03:02:26.250Z,19.30
2022-09-03T03:04:56.782Z,19.30
2022-09-03T03:07:26.618Z,19.30
2022-09-03T03:09:55.695Z,19.30
2022-09-03T03:12:25.199Z,19.30
2022-09-03T03:14:54.311Z,19.30
2022-09-03T03:17:23.506Z,19.30
2022-09-03T03:19:52.497Z,19.30
2022-09-03T03:22:22.903Z,19.30
2022-09-03T03:24:52.834Z,19.20
2022-09-03T03:27:22.500Z,19.10
2022-09-03T03:29:52.227Z,19.10
2022-09-03T03:32:21.225Z,19.00
2022-09-03T03:34:50.286Z,19.00
2022-09-03T03:37:19.325Z,19.00
2022-09-03T03:39:49.728Z,19.00
2022-09-03T03:42:18.974Z,19.00
2022-09-03T03:44:48.151Z,18.90
2022-09-03T03:47:18.423Z,19.00
2022-09-03T03:49:47.455Z,19.00
2022-09-03T03:52:16.476Z,19.00
2022-09-03T03:54:45.525Z,18.90
2022-09-03T03:57:15.925Z,18.90
2022-09-03T03:59:44.998Z,18.90
2022-09-03T04:02:15.145Z,18.90
2022-09-03T04:04:44.210Z,18.90
2022-09-03T04:07:13.381Z,18.90
2022-09-03T04:09:42.561Z,18.90
2022-09-03T04:12:11.653Z,18.90
2022-09-03T04:14:42.993Z,18.90
2022-09-03T04:17:12.158Z,18.90
2022-09-03T04:19:41.259Z,18.80
2022-09-03T04:22:10.335Z,18.80
2022-09-03T04:24:39.406Z,18.80
2022-09-03T04:27:08.907Z,18.80
2022-09-03T04:29:38.027Z,18.90
2022-09-03T04:32:26.907Z,18.90
2022-09-03T04:34:56.112Z,18.90
2022-09-03T04:37:25.255Z,18.90
2022-09-03T04:39:54.307Z,18.90
2022-09-03T04:42:23.615Z,19.00
2022-09-03T04:44:52.698Z,19.00
2022-09-03T04:47:23.562Z,19.00
2022-09-03T04:49:54.167Z,19.10
2022-09-03T04:52:24.213Z,19.00
2022-09-03T04:54:53.227Z,19.00
2022-09-03T04:57:22.843Z,19.00
2022-09-03T04:59:51.903Z,19.00
2022-09-03T05:02:22.266Z,19.00
2022-09-03T05:04:52.319Z,19.00
2022-09-03T05:07:21.455Z,19.00
2022-09-03T05:09:51.405Z,19.00
2022-09-03T05:12:22.677Z,19.00
2022-09-03T05:14:51.798Z,19.00
2022-09-03T05:17:22.262Z,19.10
2022-09-03T05:19:51.546Z,19.00
2022-09-03T05:22:21.634Z,19.10
2022-09-03T05:24:51.029Z,19.00
2022-09-03T05:27:20.183Z,19.10
2022-09-03T05:29:49.446Z,19.10
2022-09-03T05:32:18.534Z,19.10
2022-09-03T05:34:48.987Z,19.20
2022-09-03T05:37:18.143Z,19.20
2022-09-03T05:39:47.243Z,19.20
2022-09-03T05:42:16.383Z,19.10
2022-09-03T05:44:45.544Z,19.10
2022-09-03T05:47:14.571Z,19.10
2022-09-03T05:49:43.727Z,19.20
2022-09-03T05:52:14.096Z,19.20
2022-09-03T05:54:43.194Z,19.30
2022-09-03T05:57:13.206Z,19.50
2022-09-03T05:59:42.352Z,19.70
2022-09-03T06:02:12.231Z,19.80
2022-09-03T06:04:41.521Z,19.90
2022-09-03T06:07:10.535Z,20.00
2022-09-03T06:09:41.914Z,20.00
2022-09-03T06:12:10.939Z,20.10
2022-09-03T06:14:40.035Z,20.10
2022-09-03T06:17:11.253Z,20.00
2022-09-03T06:19:40.501Z,20.10
2022-09-03T06:22:09.574Z,20.00
2022-09-03T06:24:40.033Z,20.00
2022-09-03T06:27:09.084Z,19.90
2022-09-03T06:29:38.933Z,19.90
2022-09-03T06:32:08.101Z,19.90
2022-09-03T06:34:39.214Z,19.90
2022-09-03T06:37:08.289Z,19.90
2022-09-03T06:39:37.437Z,20.00
2022-09-03T06:42:09.927Z,20.00
2022-09-03T06:44:39.603Z,19.90
2022-09-03T06:47:08.842Z,19.90
2022-09-03T06:49:38.774Z,20.00
2022-09-03T06:52:07.887Z,20.00
2022-09-03T06:54:40.764Z,20.00
2022-09-03T06:57:11.694Z,20.00
2022-09-03T06:59:40.895Z,20.00
2022-09-03T07:02:10.082Z,20.00
2022-09-03T07:04:39.335Z,20.00
2022-09-03T07:07:13.231Z,20.10
2022-09-03T07:09:46.395Z,20.20
2022-09-03T07:12:19.298Z,20.20
2022-09-03T07:14:48.806Z,20.30
2022-09-03T07:17:20.426Z,20.30
2022-09-03T07:19:49.602Z,20.30
2022-09-03T07:22:18.727Z,20.30
2022-09-03T07:24:47.936Z,20.40
2022-09-03T07:27:18.651Z,20.40
2022-09-03T07:29:47.793Z,20.40
2022-09-03T07:32:16.842Z,20.50
2022-09-03T07:34:46.001Z,20.60
2022-09-03T07:37:15.832Z,20.70
2022-09-03T07:39:45.074Z,20.60
2022-09-03T07:42:14.615Z,20.60
2022-09-03T07:44:45.137Z,20.60
2022-09-03T07:47:15.002Z,20.60
2022-09-03T07:49:48.072Z,20.60
2022-09-03T07:52:18.920Z,20.60
2022-09-03T07:54:47.993Z,20.70
2022-09-03T07:57:17.128Z,20.70
2022-09-03T07:59:47.986Z,20.70
2022-09-03T08:02:17.043Z,20.70
2022-09-03T08:04:46.206Z,20.80
2022-09-03T08:07:15.328Z,21.00
2022-09-03T08:09:44.502Z,21.10
2022-09-03T08:12:13.569Z,21.20
2022-09-03T08:14:42.731Z,21.30
2022-09-03T08:17:13.457Z,21.40
2022-09-03T08:19:43.771Z,21.50
2022-09-03T08:22:13.111Z,21.60
2022-09-03T08:24:43.286Z,21.70
2022-09-03T08:27:12.453Z,21.80
2022-09-03T08:29:42.099Z,21.90
2022-09-03T08:32:12.648Z,22.00
2022-09-03T08:34:43.536Z,22.10
2022-09-03T08:37:13.171Z,22.10
2022-09-03T08:39:42.470Z,22.20
2022-09-03T08:42:28.985Z,22.20
2022-09-03T08:45:02.982Z,22.20
2022-09-03T08:47:40.047Z,22.30
2022-09-03T08:50:14.592Z,22.40
2022-09-03T08:52:50.346Z,22.40
2022-09-03T08:55:26.803Z,22.50
2022-09-03T08:58:03.305Z,22.60
2022-09-03T09:00:45.879Z,22.50
2022-09-03T09:03:36.550Z,22.40
2022-09-03T09:06:17.893Z,22.40
2022-09-03T09:09:00.434Z,22.20
2022-09-03T09:11:49.821Z,22.20
2022-09-03T09:14:27.217Z,22.40
2022-09-03T09:17:06.098Z,22.30
2022-09-03T09:19:48.300Z,22.10
2022-09-03T09:22:28.777Z,22.10
2022-09-03T09:25:02.939Z,22.10
2022-09-03T09:27:33.896Z,22.10
2022-09-03T09:30:07.052Z,22.20
2022-09-03T09:32:38.677Z,22.30
2022-09-03T09:35:12.232Z,22.40
2022-09-03T09:37:50.797Z,22.40
2022-09-03T09:40:33.840Z,22.50
2022-09-03T09:43:12.808Z,22.50
2022-09-03T09:45:44.788Z,22.60
2022-09-03T09:48:22.556Z,22.50
2022-09-03T09:51:07.166Z,22.50
2022-09-03T09:53:36.516Z,22.50
2022-09-03T09:56:05.862Z,22.40
2022-09-03T09:58:36.711Z,22.50
2022-09-03T10:01:14.289Z,22.60
2022-09-03T10:03:55.944Z,22.70
2022-09-03T10:06:49.663Z,22.70
2022-09-03T10:09:22.085Z,22.60
2022-09-03T10:12:15.376Z,22.60
2022-09-03T10:14:51.389Z,22.60
2022-09-03T10:17:36.673Z,22.60
2022-09-03T10:20:30.920Z,22.70
2022-09-03T10:23:11.124Z,22.70
2022-09-03T10:25:53.579Z,22.80
2022-09-03T10:28:27.423Z,23.00
2022-09-03T10:31:16.084Z,23.20
2022-09-03T10:33:50.992Z,23.30
2022-09-03T10:36:26.508Z,23.50
2022-09-03T10:39:06.641Z,23.40
2022-09-03T10:41:55.883Z,23.50
2022-09-03T10:45:00.713Z,23.60
2022-09-03T10:47:45.505Z,23.70
2022-09-03T10:50:18.732Z,23.60
2022-09-03T10:53:08.792Z,23.70
2022-09-03T10:55:49.477Z,23.80
2022-09-03T10:58:42.021Z,24.00
2022-09-03T11:01:22.309Z,24.10
2022-09-03T11:04:04.947Z,24.20
2022-09-03T11:06:43.100Z,24.30
2022-09-03T11:09:20.107Z,24.30
2022-09-03T11:11:57.781Z,24.40
2022-09-03T11:14:37.094Z,24.50
2022-09-03T11:17:13.258Z,24.60
2022-09-03T11:19:50.959Z,24.60
2022-09-03T11:22:23.272Z,24.70
2022-09-03T11:24:58.170Z,24.70
2022-09-03T11:27:51.444Z,24.70
2022-09-03T11:30:49.974Z,24.80
2022-09-03T11:33:25.711Z,24.80
2022-09-03T11:36:00.957Z,24.80
2022-09-03T11:38:32.292Z,24.80
2022-09-03T11:41:11.850Z,24.80
2022-09-03T11:43:44.149Z,24.60
2022-09-03T11:46:29.515Z,24.60
2022-09-03T11:49:11.663Z,24.60
2022-09-03T11:51:44.156Z,24.60
2022-09-03T11:54:27.289Z,24.60
2022-09-03T11:57:13.917Z,24.60
2022-09-03T11:59:46.023Z,24.70
2022-09-03T12:02:29.899Z,24.70
2022-09-03T12:05:19.906Z,24.60
2022-09-03T12:08:16.849Z,24.70
2022-09-03T12:10:55.036Z,24.60
2022-09-03T12:13:47.886Z,24.50
2022-09-03T12:17:07.027Z,24.50
2022-09-03T12:19:43.084Z,24.50
2022-09-03T12:22:16.055Z,24.40
2022-09-03T12:24:45.830Z,24.40
2022-09-03T12:27:24.164Z,24.40
2022-09-03T12:30:01.138Z,24.30
2022-09-03T12:32:37.110Z,24.30
2022-09-03T12:38:40.628Z,24.30
2022-09-03T12:41:28.550Z,24.30
2022-09-03T12:44:01.195Z,24.20
2022-09-03T12:46:34.319Z,24.20
2022-09-03T12:52:06.382Z,24.10
2022-09-03T12:54:40.421Z,23.70
2022-09-03T12:57:10.931Z,23.50
2022-09-03T13:00:05.907Z,23.20
2022-09-03T13:02:52.606Z,23.10
2022-09-03T13:05:32.554Z,22.80
2022-09-03T13:08:04.157Z,22.70
2022-09-03T13:10:38.857Z,22.80
2022-09-03T13:13:23.113Z,22.80
2022-09-03T13:16:35.812Z,22.80
